sensor_id;sensor_type;location;lat;lon;timestamp;pressure;altitude;pressure_sealevel;temperature;humidity
3697;BME280;60662;48.810;8.872;2023-02-28T11:19:03;97250.31;;;2.38;58.19
3697;BME280;60662;48.810;8.872;2023-02-28T11:20:06;97263.53;;;3.53;55.95
3697;BME280;60662;48.810;8.872;2023-02-28T11:21:09;97255.47;;;3.92;54.35
3697;BME280;60662;48.810;8.872;2023-02-28T11:22:20;97254.63;;;4.77;52.19
3697;BME280;60662;48.810;8.872;2023-02-28T11:24:44;97260.88;;;4.62;52.43
3697;BME280;60662;48.810;8.872;2023-02-28T11:27:00;97262.84;;;5.10;50.82
3697;BME280;60662;48.810;8.872;2023-02-28T11:29:47;97256.63;;;3.57;52.28
3697;BME280;60662;48.810;8.872;2023-02-28T11:31:04;97262.22;;;4.08;52.13
3697;BME280;60662;48.810;8.872;2023-02-28T11:32:13;97266.84;;;4.66;51.02
3697;BME280;60662;48.810;8.872;2023-02-28T11:35:32;97254.38;;;4.21;51.68
3697;BME280;60662;48.810;8.872;2023-02-28T11:36:35;97249.94;;;4.34;51.72
3697;BME280;60662;48.810;8.872;2023-02-28T11:42:57;97253.66;;;4.06;52.87
3697;BME280;60662;48.810;8.872;2023-02-28T11:48:49;97242.41;;;4.07;52.17
3697;BME280;60662;48.810;8.872;2023-02-28T11:52:54;97256.41;;;4.72;50.96
3697;BME280;60662;48.810;8.872;2023-02-28T11:56:39;97243.38;;;4.00;52.58
3697;BME280;60662;48.810;8.872;2023-02-28T12:01:19;97248.41;;;4.92;49.67
3697;BME280;60662;48.810;8.872;2023-02-28T12:03:22;97237.72;;;5.18;50.43
3697;BME280;60662;48.810;8.872;2023-02-28T12:07:16;97243.38;;;6.04;48.27
3697;BME280;60662;48.810;8.872;2023-02-28T12:10:57;97239.91;;;5.48;48.75
3697;BME280;60662;48.810;8.872;2023-02-28T12:13:22;97233.75;;;6.10;47.23
3697;BME280;60662;48.810;8.872;2023-02-28T12:15:42;97233.97;;;6.46;47.01
3697;BME280;60662;48.810;8.872;2023-02-28T12:27:07;97241.97;;;7.60;45.09
3697;BME280;60662;48.810;8.872;2023-02-28T12:28:14;97223.44;;;8.10;43.44
3697;BME280;60662;48.810;8.872;2023-02-28T12:29:26;97233.31;;;7.97;43.12
3697;BME280;60662;48.810;8.872;2023-02-28T12:30:32;97239.38;;;6.79;45.89
3697;BME280;60662;48.810;8.872;2023-02-28T12:31:38;97232.94;;;7.39;45.39
3697;BME280;60662;48.810;8.872;2023-02-28T12:32:44;97227.84;;;8.07;44.23
3697;BME280;60662;48.810;8.872;2023-02-28T12:33:51;97228.94;;;7.98;43.83
3697;BME280;60662;48.810;8.872;2023-02-28T12:35:23;97217.28;;;8.47;42.90
3697;BME280;60662;48.810;8.872;2023-02-28T12:37:47;97224.91;;;5.07;47.41
3697;BME280;60662;48.810;8.872;2023-02-28T12:39:04;97215.41;;;5.69;46.92
3697;BME280;60662;48.810;8.872;2023-02-28T12:45:56;97217.34;;;4.94;49.29
3697;BME280;60662;48.810;8.872;2023-02-28T12:47:04;97206.84;;;6.62;47.43
3697;BME280;60662;48.810;8.872;2023-02-28T12:48:10;97214.75;;;7.39;46.75
3697;BME280;60662;48.810;8.872;2023-02-28T12:49:19;97217.94;;;6.70;45.57
3697;BME280;60662;48.810;8.872;2023-02-28T12:50:24;97211.19;;;6.15;48.05
3697;BME280;60662;48.810;8.872;2023-02-28T12:51:26;97208.19;;;7.21;46.06
3697;BME280;60662;48.810;8.872;2023-02-28T12:52:40;97202.53;;;7.79;45.16
3697;BME280;60662;48.810;8.872;2023-02-28T12:55:18;97208.59;;;8.48;42.47
3697;BME280;60662;48.810;8.872;2023-02-28T12:57:41;97194.41;;;9.47;42.45
3697;BME280;60662;48.810;8.872;2023-02-28T12:58:54;97205.09;;;9.94;41.79
3697;BME280;60662;48.810;8.872;2023-02-28T13:00:00;97199.03;;;10.70;40.72
3697;BME280;60662;48.810;8.872;2023-02-28T13:07:12;97199.31;;;8.04;42.73
3697;BME280;60662;48.810;8.872;2023-02-28T13:08:03;97202.69;;;7.37;43.15
3697;BME280;60662;48.810;8.872;2023-02-28T13:09:17;97207.50;;;5.77;46.54
3697;BME280;60662;48.810;8.872;2023-02-28T13:10:19;97206.50;;;5.28;46.85
3697;BME280;60662;48.810;8.872;2023-02-28T13:11:40;97203.31;;;6.21;46.35
3697;BME280;60662;48.810;8.872;2023-02-28T13:12:50;97197.59;;;6.49;46.32
3697;BME280;60662;48.810;8.872;2023-02-28T13:14:01;97192.19;;;7.40;45.49
3697;BME280;60662;48.810;8.872;2023-02-28T13:15:19;97191.13;;;8.19;44.22
3697;BME280;60662;48.810;8.872;2023-02-28T13:16:23;97192.69;;;8.25;44.45
3697;BME280;60662;48.810;8.872;2023-02-28T13:17:24;97196.75;;;9.28;42.43
3697;BME280;60662;48.810;8.872;2023-02-28T13:20:04;97192.81;;;9.96;41.13
3697;BME280;60662;48.810;8.872;2023-02-28T13:21:07;97190.56;;;9.30;40.72
3697;BME280;60662;48.810;8.872;2023-02-28T13:24:47;97194.09;;;9.58;40.28
3697;BME280;60662;48.810;8.872;2023-02-28T13:25:51;97197.16;;;9.71;40.85
3697;BME280;60662;48.810;8.872;2023-02-28T13:27:17;97191.41;;;9.86;40.71
3697;BME280;60662;48.810;8.872;2023-02-28T13:29:59;97198.41;;;8.71;41.44
3697;BME280;60662;48.810;8.872;2023-02-28T13:31:05;97198.19;;;8.80;42.56
3697;BME280;60662;48.810;8.872;2023-02-28T13:33:28;97197.56;;;9.00;41.66
3697;BME280;60662;48.810;8.872;2023-02-28T13:34:30;97182.53;;;9.10;41.16
3697;BME280;60662;48.810;8.872;2023-02-28T13:35:37;97201.63;;;9.10;41.24
3697;BME280;60662;48.810;8.872;2023-02-28T13:36:39;97192.69;;;9.74;40.93
3697;BME280;60662;48.810;8.872;2023-02-28T13:37:44;97197.44;;;9.35;40.87
3697;BME280;60662;48.810;8.872;2023-02-28T13:38:51;97202.94;;;8.95;41.42
3697;BME280;60662;48.810;8.872;2023-02-28T13:44:04;97199.84;;;7.82;43.07
3697;BME280;60662;48.810;8.872;2023-02-28T13:46:13;97197.31;;;8.13;42.31
3697;BME280;60662;48.810;8.872;2023-02-28T13:47:28;97195.75;;;8.72;41.92
3697;BME280;60662;48.810;8.872;2023-02-28T13:48:30;97192.44;;;8.67;42.53
3697;BME280;60662;48.810;8.872;2023-02-28T13:49:32;97197.25;;;9.11;41.44
3697;BME280;60662;48.810;8.872;2023-02-28T13:50:36;97204.59;;;9.26;41.37
3697;BME280;60662;48.810;8.872;2023-02-28T13:51:44;97189.88;;;10.07;40.47
3697;BME280;60662;48.810;8.872;2023-02-28T13:56:27;97202.03;;;11.06;39.33
3697;BME280;60662;48.810;8.872;2023-02-28T13:57:48;97193.59;;;11.00;38.63
3697;BME280;60662;48.810;8.872;2023-02-28T13:59:02;97202.63;;;10.91;38.12
3697;BME280;60662;48.810;8.872;2023-02-28T14:05:17;97202.84;;;8.34;41.60
3697;BME280;60662;48.810;8.872;2023-02-28T14:06:33;97187.84;;;7.40;43.38
3697;BME280;60662;48.810;8.872;2023-02-28T14:08:05;97197.31;;;8.13;42.61
3697;BME280;60662;48.810;8.872;2023-02-28T14:09:49;97205.34;;;6.50;44.19
3697;BME280;60662;48.810;8.872;2023-02-28T14:10:47;97174.00;;;7.40;44.48
3697;BME280;60662;48.810;8.872;2023-02-28T14:11:49;97195.59;;;8.78;42.65
3697;BME280;60662;48.810;8.872;2023-02-28T14:13:55;97177.31;;;7.46;42.58
3697;BME280;60662;48.810;8.872;2023-02-28T14:14:57;97198.19;;;7.04;43.88
3697;BME280;60662;48.810;8.872;2023-02-28T14:16:03;97197.66;;;7.29;44.52
3697;BME280;60662;48.810;8.872;2023-02-28T14:17:14;97186.47;;;7.97;43.29
3697;BME280;60662;48.810;8.872;2023-02-28T14:18:26;97198.97;;;7.83;43.19
3697;BME280;60662;48.810;8.872;2023-02-28T14:19:30;97188.25;;;8.93;42.19
3697;BME280;60662;48.810;8.872;2023-02-28T14:20:33;97199.63;;;9.75;40.46
3697;BME280;60662;48.810;8.872;2023-02-28T14:21:36;97199.75;;;9.14;40.40
3697;BME280;60662;48.810;8.872;2023-02-28T14:24:42;97196.41;;;9.39;41.32
3697;BME280;60662;48.810;8.872;2023-02-28T14:28:35;97198.53;;;10.08;39.93
3697;BME280;60662;48.810;8.872;2023-02-28T14:33:20;97197.50;;;10.13;39.63
3697;BME280;60662;48.810;8.872;2023-02-28T14:35:57;97193.31;;;10.08;39.50
3697;BME280;60662;48.810;8.872;2023-02-28T14:37:03;97192.97;;;10.69;38.76
3697;BME280;60662;48.810;8.872;2023-02-28T14:38:06;97185.00;;;10.72;38.80
3697;BME280;60662;48.810;8.872;2023-02-28T14:39:22;97190.09;;;10.26;39.31
3697;BME280;60662;48.810;8.872;2023-02-28T14:40:29;97188.28;;;10.02;39.54
3697;BME280;60662;48.810;8.872;2023-02-28T14:41:37;97189.09;;;9.23;40.53
3697;BME280;60662;48.810;8.872;2023-02-28T14:42:47;97200.34;;;9.52;40.83
3697;BME280;60662;48.810;8.872;2023-02-28T14:43:55;97194.59;;;9.96;40.28
3697;BME280;60662;48.810;8.872;2023-02-28T14:44:57;97195.31;;;10.26;39.78
3697;BME280;60662;48.810;8.872;2023-02-28T14:46:02;97191.56;;;10.08;40.10
3697;BME280;60662;48.810;8.872;2023-02-28T14:47:14;97194.13;;;10.35;40.17
3697;BME280;60662;48.810;8.872;2023-02-28T14:48:17;97197.25;;;10.47;40.02
3697;BME280;60662;48.810;8.872;2023-02-28T14:50:29;97194.13;;;10.84;38.81
3697;BME280;60662;48.810;8.872;2023-02-28T14:51:32;97195.28;;;10.77;38.99
3697;BME280;60662;48.810;8.872;2023-02-28T14:52:34;97167.25;;;10.82;38.81
3697;BME280;60662;48.810;8.872;2023-02-28T14:53:37;97180.03;;;11.12;38.26
3697;BME280;60662;48.810;8.872;2023-02-28T14:54:39;97197.78;;;11.04;38.62
3697;BME280;60662;48.810;8.872;2023-02-28T14:55:45;97195.91;;;11.07;38.44
3697;BME280;60662;48.810;8.872;2023-02-28T14:56:48;97190.00;;;11.02;38.50
3697;BME280;60662;48.810;8.872;2023-02-28T14:57:59;97199.19;;;11.13;38.68
3697;BME280;60662;48.810;8.872;2023-02-28T14:59:01;97195.34;;;10.99;38.43
3697;BME280;60662;48.810;8.872;2023-02-28T15:00:16;97191.34;;;10.65;38.73
3697;BME280;60662;48.810;8.872;2023-02-28T15:01:23;97198.47;;;10.61;38.56
3697;BME280;60662;48.810;8.872;2023-02-28T15:02:30;97201.78;;;9.89;39.74
3697;BME280;60662;48.810;8.872;2023-02-28T15:03:36;97199.69;;;9.99;39.93
3697;BME280;60662;48.810;8.872;2023-02-28T15:04:38;97199.94;;;9.91;39.63
3697;BME280;60662;48.810;8.872;2023-02-28T15:05:39;97206.97;;;9.06;41.62
3697;BME280;60662;48.810;8.872;2023-02-28T15:06:41;97203.38;;;9.67;41.11
3697;BME280;60662;48.810;8.872;2023-02-28T15:07:44;97198.56;;;9.81;40.67
3697;BME280;60662;48.810;8.872;2023-02-28T15:08:45;97194.72;;;9.09;42.00
3697;BME280;60662;48.810;8.872;2023-02-28T15:09:46;97200.66;;;9.70;41.82
3697;BME280;60662;48.810;8.872;2023-02-28T15:11:16;97199.50;;;9.52;41.95
3697;BME280;60662;48.810;8.872;2023-02-28T15:12:20;97204.44;;;9.03;42.79
3697;BME280;60662;48.810;8.872;2023-02-28T15:13:22;97198.75;;;8.90;42.85
3697;BME280;60662;48.810;8.872;2023-02-28T15:14:25;97200.56;;;8.88;43.64
3697;BME280;60662;48.810;8.872;2023-02-28T15:15:43;97207.69;;;9.11;43.06
3697;BME280;60662;48.810;8.872;2023-02-28T15:17:07;97208.09;;;9.25;43.03
3697;BME280;60662;48.810;8.872;2023-02-28T15:18:41;97207.59;;;8.84;42.79
3697;BME280;60662;48.810;8.872;2023-02-28T15:19:47;97208.81;;;9.32;42.36
3697;BME280;60662;48.810;8.872;2023-02-28T15:20:50;97201.06;;;9.84;41.52
3697;BME280;60662;48.810;8.872;2023-02-28T15:22:15;97197.72;;;9.80;40.67
3697;BME280;60662;48.810;8.872;2023-02-28T15:23:21;97207.25;;;9.82;39.92
3697;BME280;60662;48.810;8.872;2023-02-28T15:24:45;97201.41;;;9.18;41.20
3697;BME280;60662;48.810;8.872;2023-02-28T15:25:49;97207.88;;;9.33;40.75
3697;BME280;60662;48.810;8.872;2023-02-28T15:26:58;97190.56;;;9.32;40.62
3697;BME280;60662;48.810;8.872;2023-02-28T15:28:00;97207.00;;;9.62;40.28
3697;BME280;60662;48.810;8.872;2023-02-28T15:29:07;97200.63;;;9.14;41.19
3697;BME280;60662;48.810;8.872;2023-02-28T15:30:25;97204.00;;;9.46;40.97
3697;BME280;60662;48.810;8.872;2023-02-28T15:31:29;97207.25;;;9.53;40.58
3697;BME280;60662;48.810;8.872;2023-02-28T15:33:18;97163.53;;;9.35;40.39
3697;BME280;60662;48.810;8.872;2023-02-28T15:34:26;97199.34;;;9.56;40.87
3697;BME280;60662;48.810;8.872;2023-02-28T15:35:41;97199.28;;;9.01;41.10
3697;BME280;60662;48.810;8.872;2023-02-28T15:36:42;97200.53;;;9.18;41.48
3697;BME280;60662;48.810;8.872;2023-02-28T15:37:56;97196.50;;;9.36;41.49
3697;BME280;60662;48.810;8.872;2023-02-28T15:38:58;97198.03;;;9.43;41.51
3697;BME280;60662;48.810;8.872;2023-02-28T15:40:18;97207.03;;;9.32;41.83
3697;BME280;60662;48.810;8.872;2023-02-28T15:41:29;97191.44;;;9.31;41.29
3697;BME280;60662;48.810;8.872;2023-02-28T15:42:31;97210.94;;;9.47;41.40
3697;BME280;60662;48.810;8.872;2023-02-28T15:43:35;97206.75;;;9.70;41.00
3697;BME280;60662;48.810;8.872;2023-02-28T15:44:38;97187.72;;;9.40;40.70
3697;BME280;60662;48.810;8.872;2023-02-28T15:45:47;97098.03;;;8.60;41.35
3697;BME280;60662;48.810;8.872;2023-02-28T15:47:12;97202.94;;;9.24;41.49
3697;BME280;60662;48.810;8.872;2023-02-28T15:48:19;97206.97;;;9.06;41.78
3697;BME280;60662;48.810;8.872;2023-02-28T15:49:22;97207.88;;;9.05;42.16
3697;BME280;60662;48.810;8.872;2023-02-28T15:50:27;97206.97;;;9.06;42.17
3697;BME280;60662;48.810;8.872;2023-02-28T15:51:37;97204.75;;;9.22;42.15
3697;BME280;60662;48.810;8.872;2023-02-28T15:52:41;97198.50;;;8.97;42.92
3697;BME280;60662;48.810;8.872;2023-02-28T15:54:00;97197.22;;;8.82;43.10
3697;BME280;60662;48.810;8.872;2023-02-28T15:55:18;97203.94;;;8.90;42.89
3697;BME280;60662;48.810;8.872;2023-02-28T15:56:43;97204.81;;;8.90;42.66
3697;BME280;60662;48.810;8.872;2023-02-28T15:57:49;97204.81;;;8.90;42.95
3697;BME280;60662;48.810;8.872;2023-02-28T15:59:15;97200.44;;;8.61;43.36
3697;BME280;60662;48.810;8.872;2023-02-28T16:00:22;97193.75;;;8.52;43.48
3697;BME280;60662;48.810;8.872;2023-02-28T16:01:29;97198.59;;;8.31;43.56
3697;BME280;60662;48.810;8.872;2023-02-28T16:02:36;97193.81;;;7.81;44.09
3697;BME280;60662;48.810;8.872;2023-02-28T16:03:42;97205.63;;;7.93;44.40
3697;BME280;60662;48.810;8.872;2023-02-28T16:07:18;97198.63;;;7.97;44.23
3697;BME280;60662;48.810;8.872;2023-02-28T16:08:19;97204.00;;;7.89;44.59
3697;BME280;60662;48.810;8.872;2023-02-28T16:09:20;97200.19;;;7.68;44.62
3697;BME280;60662;48.810;8.872;2023-02-28T16:10:23;97208.16;;;7.62;45.30
3697;BME280;60662;48.810;8.872;2023-02-28T16:11:27;97213.59;;;7.51;45.05
3697;BME280;60662;48.810;8.872;2023-02-28T16:12:32;97210.91;;;7.54;45.02
3697;BME280;60662;48.810;8.872;2023-02-28T16:13:34;97203.06;;;7.57;45.37
3697;BME280;60662;48.810;8.872;2023-02-28T16:14:36;97207.59;;;7.47;45.53
3697;BME280;60662;48.810;8.872;2023-02-28T16:15:42;97211.22;;;7.42;45.33
3697;BME280;60662;48.810;8.872;2023-02-28T16:16:47;97202.47;;;7.46;45.50
3697;BME280;60662;48.810;8.872;2023-02-28T16:17:50;97202.41;;;7.47;45.40
3697;BME280;60662;48.810;8.872;2023-02-28T16:18:52;97205.88;;;7.48;45.93
3697;BME280;60662;48.810;8.872;2023-02-28T16:19:54;97211.88;;;7.50;45.80
3697;BME280;60662;48.810;8.872;2023-02-28T16:20:56;97207.09;;;7.33;45.88
3697;BME280;60662;48.810;8.872;2023-02-28T16:21:58;97205.97;;;7.43;45.54
3697;BME280;60662;48.810;8.872;2023-02-28T16:22:59;97188.78;;;7.38;45.22
3697;BME280;60662;48.810;8.872;2023-02-28T16:24:03;97200.06;;;7.37;45.73
3697;BME280;60662;48.810;8.872;2023-02-28T16:25:05;97222.63;;;7.34;45.58
3697;BME280;60662;48.810;8.872;2023-02-28T16:26:19;97193.75;;;7.09;45.86
3697;BME280;60662;48.810;8.872;2023-02-28T16:27:27;97222.84;;;7.24;45.64
3697;BME280;60662;48.810;8.872;2023-02-28T16:28:33;97218.59;;;7.21;45.74
3697;BME280;60662;48.810;8.872;2023-02-28T16:29:36;97210.63;;;6.88;46.41
3697;BME280;60662;48.810;8.872;2023-02-28T16:30:38;97214.81;;;6.53;47.22
3697;BME280;60662;48.810;8.872;2023-02-28T16:31:40;97220.69;;;6.61;47.48
3697;BME280;60662;48.810;8.872;2023-02-28T16:32:41;97225.72;;;6.70;47.15
3697;BME280;60662;48.810;8.872;2023-02-28T16:33:44;97223.78;;;6.82;46.85
3697;BME280;60662;48.810;8.872;2023-02-28T16:34:46;97223.88;;;6.76;47.22
3697;BME280;60662;48.810;8.872;2023-02-28T16:35:48;97228.28;;;6.72;47.46
3697;BME280;60662;48.810;8.872;2023-02-28T16:36:50;97231.97;;;6.60;47.53
3697;BME280;60662;48.810;8.872;2023-02-28T16:37:52;97225.03;;;6.61;47.65
3697;BME280;60662;48.810;8.872;2023-02-28T16:38:55;97224.47;;;6.45;47.97
3697;BME280;60662;48.810;8.872;2023-02-28T16:39:56;97228.75;;;6.49;47.91
3697;BME280;60662;48.810;8.872;2023-02-28T16:40:59;97230.81;;;6.30;48.37
3697;BME280;60662;48.810;8.872;2023-02-28T16:42:01;97217.34;;;6.11;48.83
3697;BME280;60662;48.810;8.872;2023-02-28T16:43:06;97233.88;;;6.03;48.76
3697;BME280;60662;48.810;8.872;2023-02-28T16:44:13;97229.50;;;6.07;48.74
3697;BME280;60662;48.810;8.872;2023-02-28T16:45:23;97226.94;;;6.04;48.94
3697;BME280;60662;48.810;8.872;2023-02-28T16:46:27;97227.22;;;5.84;49.55
